sensor_id;sensor_type;location;lat;lon;timestamp;temperature;humidity
77700;DHT22;66867;42.658;23.320;2023-09-19T00:00:00;19.5;64
77700;DHT22;66867;42.658;23.320;2023-09-19T00:01:00;19.5;64
77700;DHT22;66867;42.658;23.320;2023-09-19T00:02:00;19.5;65
77700;DHT22;66867;42.658;23.320;2023-09-19T00:03:00;19.4;65
77700;DHT22;66867;42.658;23.320;2023-09-19T00:04:00;19.5;66
77700;DHT22;66867;42.658;23.320;2023-09-19T00:05:00;19.5;66
77700;DHT22;66867;42.658;23.320;2023-09-19T00:06:00;19.5;66
77700;DHT22;66867;42.658;23.320;2023-09-19T00:07:00;19.4;66
77700;DHT22;66867;42.658;23.320;2023-09-19T00:08:00;19.4;66
77700;DHT22;66867;42.658;23.320;2023-09-19T00:09:00;19.4;66
77700;DHT22;66867;42.658;23.320;2023-09-19T00:10:00;19.4;66
77700;DHT22;66867;42.658;23.320;2023-09-19T00:11:00;19.4;66
77700;DHT22;66867;42.658;23.320;2023-09-19T00:12:00;19.4;66
77700;DHT22;66867;42.658;23.320;2023-09-19T00:13:00;19.4;66
77700;DHT22;66867;42.658;23.320;2023-09-19T00:14:00;19.4;66
77700;DHT22;66867;42.658;23.320;2023-09-19T00:15:00;19.3;66
77700;DHT22;66867;42.658;23.320;2023-09-19T00:16:00;19.4;66
77700;DHT22;66867;42.658;23.320;2023-09-19T00:17:00;19.3;66
77700;DHT22;66867;42.658;23.320;2023-09-19T00:18:00;19.3;66
77700;DHT22;66867;42.658;23.320;2023-09-19T00:19:00;19.3;66
77700;DHT22;66867;42.658;23.320;2023-09-19T00:20:00;19.3;66
77700;DHT22;66867;42.658;23.320;2023-09-19T00:21:00;19.3;66
77700;DHT22;66867;42.658;23.320;2023-09-19T00:22:00;19.3;66
77700;DHT22;66867;42.658;23.320;2023-09-19T00:23:00;19.3;66
77700;DHT22;66867;42.658;23.320;2023-09-19T00:24:00;19.3;65
77700;DHT22;66867;42.658;23.320;2023-09-19T00:25:00;19.3;65
77700;DHT22;66867;42.658;23.320;2023-09-19T00:26:00;19.3;66
77700;DHT22;66867;42.658;23.320;2023-09-19T00:27:00;19.3;66
77700;DHT22;66867;42.658;23.320;2023-09-19T00:28:00;19.2;66
77700;DHT22;66867;42.658;23.320;2023-09-19T00:29:00;19.2;66
77700;DHT22;66867;42.658;23.320;2023-09-19T00:30:00;19.3;66
77700;DHT22;66867;42.658;23.320;2023-09-19T00:31:00;19.3;66
77700;DHT22;66867;42.658;23.320;2023-09-19T00:32:00;19.2;66
77700;DHT22;66867;42.658;23.320;2023-09-19T00:33:00;19.2;66
77700;DHT22;66867;42.658;23.320;2023-09-19T00:34:00;19.3;66
77700;DHT22;66867;42.658;23.320;2023-09-19T00:35:00;19.3;66
77700;DHT22;66867;42.658;23.320;2023-09-19T00:36:00;19.3;66
77700;DHT22;66867;42.658;23.320;2023-09-19T00:37:00;19.3;66
77700;DHT22;66867;42.658;23.320;2023-09-19T00:38:00;19.3;66
77700;DHT22;66867;42.658;23.320;2023-09-19T00:39:00;19.2;66
77700;DHT22;66867;42.658;23.320;2023-09-19T00:40:00;19.3;66
77700;DHT22;66867;42.658;23.320;2023-09-19T00:41:00;19.2;66
77700;DHT22;66867;42.658;23.320;2023-09-19T00:42:00;19.2;66
77700;DHT22;66867;42.658;23.320;2023-09-19T00:43:00;19.2;66
77700;DHT22;66867;42.658;23.320;2023-09-19T00:44:00;19.2;66
77700;DHT22;66867;42.658;23.320;2023-09-19T00:45:00;19.1;67
77700;DHT22;66867;42.658;23.320;2023-09-19T00:46:00;19.1;67
77700;DHT22;66867;42.658;23.320;2023-09-19T00:47:00;19.1;67
77700;DHT22;66867;42.658;23.320;2023-09-19T00:48:00;19.1;67
77700;DHT22;66867;42.658;23.320;2023-09-19T00:49:00;19.1;67
77700;DHT22;66867;42.658;23.320;2023-09-19T00:50:00;19.1;67
77700;DHT22;66867;42.658;23.320;2023-09-19T00:51:02;19.1;67
77700;DHT22;66867;42.658;23.320;2023-09-19T00:52:00;19.1;67
77700;DHT22;66867;42.658;23.320;2023-09-19T00:53:00;19.1;68
77700;DHT22;66867;42.658;23.320;2023-09-19T00:54:00;19.1;67
77700;DHT22;66867;42.658;23.320;2023-09-19T00:55:00;19.0;67
77700;DHT22;66867;42.658;23.320;2023-09-19T00:56:00;19.0;67
77700;DHT22;66867;42.658;23.320;2023-09-19T00:57:00;19.0;67
77700;DHT22;66867;42.658;23.320;2023-09-19T00:58:00;19.0;67
77700;DHT22;66867;42.658;23.320;2023-09-19T00:59:00;19.0;67
77700;DHT22;66867;42.658;23.320;2023-09-19T01:00:01;19.0;67
77700;DHT22;66867;42.658;23.320;2023-09-19T01:01:00;19.0;68
77700;DHT22;66867;42.658;23.320;2023-09-19T01:02:00;19.0;68
77700;DHT22;66867;42.658;23.320;2023-09-19T01:03:00;19.0;67
77700;DHT22;66867;42.658;23.320;2023-09-19T01:04:00;19.0;67
77700;DHT22;66867;42.658;23.320;2023-09-19T01:05:00;18.9;68
77700;DHT22;66867;42.658;23.320;2023-09-19T01:06:00;18.9;68
77700;DHT22;66867;42.658;23.320;2023-09-19T01:07:00;18.9;68
77700;DHT22;66867;42.658;23.320;2023-09-19T01:08:00;18.8;68
77700;DHT22;66867;42.658;23.320;2023-09-19T01:09:00;18.9;68
77700;DHT22;66867;42.658;23.320;2023-09-19T01:10:02;18.8;68
77700;DHT22;66867;42.658;23.320;2023-09-19T01:12:01;18.9;68
77700;DHT22;66867;42.658;23.320;2023-09-19T01:13:05;18.9;68
77700;DHT22;66867;42.658;23.320;2023-09-19T01:15:02;18.8;68
77700;DHT22;66867;42.658;23.320;2023-09-19T01:17:01;18.8;68
77700;DHT22;66867;42.658;23.320;2023-09-19T01:18:02;18.8;68
77700;DHT22;66867;42.658;23.320;2023-09-19T01:19:06;18.9;68
77700;DHT22;66867;42.658;23.320;2023-09-19T01:20:08;18.9;68
77700;DHT22;66867;42.658;23.320;2023-09-19T01:24:10;18.9;68
77700;DHT22;66867;42.658;23.320;2023-09-19T01:29:01;18.8;68
77700;DHT22;66867;42.658;23.320;2023-09-19T01:30:06;18.8;68
77700;DHT22;66867;42.658;23.320;2023-09-19T01:31:00;18.8;68
77700;DHT22;66867;42.658;23.320;2023-09-19T01:32:01;18.8;68
77700;DHT22;66867;42.658;23.320;2023-09-19T01:33:00;18.8;68
77700;DHT22;66867;42.658;23.320;2023-09-19T01:34:01;18.8;68
77700;DHT22;66867;42.658;23.320;2023-09-19T01:35:00;18.7;69
77700;DHT22;66867;42.658;23.320;2023-09-19T01:36:00;18.7;69
77700;DHT22;66867;42.658;23.320;2023-09-19T01:37:00;18.7;69
77700;DHT22;66867;42.658;23.320;2023-09-19T01:38:00;18.7;69
77700;DHT22;66867;42.658;23.320;2023-09-19T01:39:00;18.7;69
77700;DHT22;66867;42.658;23.320;2023-09-19T01:40:02;18.7;69
77700;DHT22;66867;42.658;23.320;2023-09-19T01:41:01;18.7;69
77700;DHT22;66867;42.658;23.320;2023-09-19T01:42:04;18.7;69
77700;DHT22;66867;42.658;23.320;2023-09-19T01:44:00;18.6;69
77700;DHT22;66867;42.658;23.320;2023-09-19T01:47:01;18.6;69
77700;DHT22;66867;42.658;23.320;2023-09-19T01:50:17;18.6;69
77700;DHT22;66867;42.658;23.320;2023-09-19T01:52:09;18.6;70
77700;DHT22;66867;42.658;23.320;2023-09-19T01:53:03;18.6;70
77700;DHT22;66867;42.658;23.320;2023-09-19T01:54:01;18.6;70
77700;DHT22;66867;42.658;23.320;2023-09-19T01:55:04;18.6;70
77700;DHT22;66867;42.658;23.320;2023-09-19T01:56:00;18.6;70
77700;DHT22;66867;42.658;23.320;2023-09-19T01:58:04;18.5;70
77700;DHT22;66867;42.658;23.320;2023-09-19T01:59:02;18.5;70
77700;DHT22;66867;42.658;23.320;2023-09-19T02:00:01;18.5;70
77700;DHT22;66867;42.658;23.320;2023-09-19T02:01:00;18.5;70
77700;DHT22;66867;42.658;23.320;2023-09-19T02:02:00;18.5;70
77700;DHT22;66867;42.658;23.320;2023-09-19T02:03:00;18.5;70
77700;DHT22;66867;42.658;23.320;2023-09-19T02:04:00;18.4;70
77700;DHT22;66867;42.658;23.320;2023-09-19T02:05:00;18.4;70
77700;DHT22;66867;42.658;23.320;2023-09-19T02:06:00;18.4;71
77700;DHT22;66867;42.658;23.320;2023-09-19T02:07:00;18.4;71
77700;DHT22;66867;42.658;23.320;2023-09-19T02:08:00;18.4;71
77700;DHT22;66867;42.658;23.320;2023-09-19T02:09:00;18.4;71
77700;DHT22;66867;42.658;23.320;2023-09-19T02:10:00;18.4;71
77700;DHT22;66867;42.658;23.320;2023-09-19T02:11:00;18.4;71
77700;DHT22;66867;42.658;23.320;2023-09-19T02:12:00;18.3;71
77700;DHT22;66867;42.658;23.320;2023-09-19T02:13:00;18.3;71
77700;DHT22;66867;42.658;23.320;2023-09-19T02:14:00;18.3;71
77700;DHT22;66867;42.658;23.320;2023-09-19T02:15:00;18.3;71
77700;DHT22;66867;42.658;23.320;2023-09-19T02:16:00;18.3;71
77700;DHT22;66867;42.658;23.320;2023-09-19T02:17:00;18.3;71
77700;DHT22;66867;42.658;23.320;2023-09-19T02:18:00;18.3;71
77700;DHT22;66867;42.658;23.320;2023-09-19T02:19:00;18.3;71
77700;DHT22;66867;42.658;23.320;2023-09-19T02:20:00;18.3;71
77700;DHT22;66867;42.658;23.320;2023-09-19T02:21:00;18.3;71
77700;DHT22;66867;42.658;23.320;2023-09-19T02:22:00;18.3;71
77700;DHT22;66867;42.658;23.320;2023-09-19T02:23:00;18.3;71
77700;DHT22;66867;42.658;23.320;2023-09-19T02:24:00;18.3;71
77700;DHT22;66867;42.658;23.320;2023-09-19T02:25:00;18.3;71
77700;DHT22;66867;42.658;23.320;2023-09-19T02:26:00;18.3;71
77700;DHT22;66867;42.658;23.320;2023-09-19T02:27:00;18.2;72
77700;DHT22;66867;42.658;23.320;2023-09-19T02:28:00;18.3;72
77700;DHT22;66867;42.658;23.320;2023-09-19T02:29:00;18.3;72
77700;DHT22;66867;42.658;23.320;2023-09-19T02:30:00;18.3;71
77700;DHT22;66867;42.658;23.320;2023-09-19T02:31:00;18.2;71
77700;DHT22;66867;42.658;23.320;2023-09-19T02:32:00;18.2;72
77700;DHT22;66867;42.658;23.320;2023-09-19T02:33:00;18.2;72
77700;DHT22;66867;42.658;23.320;2023-09-19T02:34:00;18.2;72
77700;DHT22;66867;42.658;23.320;2023-09-19T02:35:00;18.2;72
77700;DHT22;66867;42.658;23.320;2023-09-19T02:36:00;18.2;72
77700;DHT22;66867;42.658;23.320;2023-09-19T02:37:00;18.2;72
77700;DHT22;66867;42.658;23.320;2023-09-19T02:38:00;18.2;72
77700;DHT22;66867;42.658;23.320;2023-09-19T02:39:00;18.2;72
77700;DHT22;66867;42.658;23.320;2023-09-19T02:40:00;18.1;72
77700;DHT22;66867;42.658;23.320;2023-09-19T02:41:00;18.1;72
77700;DHT22;66867;42.658;23.320;2023-09-19T02:42:00;18.1;72
77700;DHT22;66867;42.658;23.320;2023-09-19T02:43:00;18.1;71
77700;DHT22;66867;42.658;23.320;2023-09-19T02:44:00;18.2;71
77700;DHT22;66867;42.658;23.320;2023-09-19T02:45:00;18.2;71
77700;DHT22;66867;42.658;23.320;2023-09-19T02:46:00;18.2;71
77700;DHT22;66867;42.658;23.320;2023-09-19T02:47:00;18.1;71
77700;DHT22;66867;42.658;23.320;2023-09-19T02:48:00;18.1;72
77700;DHT22;66867;42.658;23.320;2023-09-19T02:49:00;18.1;72
77700;DHT22;66867;42.658;23.320;2023-09-19T02:50:00;18.0;72
77700;DHT22;66867;42.658;23.320;2023-09-19T02:51:00;18.0;72
77700;DHT22;66867;42.658;23.320;2023-09-19T02:52:00;18.0;72
77700;DHT22;66867;42.658;23.320;2023-09-19T02:53:00;18.0;72
77700;DHT22;66867;42.658;23.320;2023-09-19T02:54:00;18.0;72
77700;DHT22;66867;42.658;23.320;2023-09-19T02:55:00;18.0;72
77700;DHT22;66867;42.658;23.320;2023-09-19T02:56:00;18.0;72
77700;DHT22;66867;42.658;23.320;2023-09-19T02:57:00;18.0;72
77700;DHT22;66867;42.658;23.320;2023-09-19T02:58:00;18.0;73
77700;DHT22;66867;42.658;23.320;2023-09-19T02:59:00;17.9;73
77700;DHT22;66867;42.658;23.320;2023-09-19T03:00:00;17.9;73
77700;DHT22;66867;42.658;23.320;2023-09-19T03:01:07;17.9;73
77700;DHT22;66867;42.658;23.320;2023-09-19T03:02:00;17.9;73
77700;DHT22;66867;42.658;23.320;2023-09-19T03:03:00;17.9;73
77700;DHT22;66867;42.658;23.320;2023-09-19T03:04:00;17.8;74
77700;DHT22;66867;42.658;23.320;2023-09-19T03:05:00;17.8;74
77700;DHT22;66867;42.658;23.320;2023-09-19T03:06:00;17.8;73
77700;DHT22;66867;42.658;23.320;2023-09-19T03:07:00;17.7;73
77700;DHT22;66867;42.658;23.320;2023-09-19T03:08:00;17.7;73
77700;DHT22;66867;42.658;23.320;2023-09-19T03:09:00;17.7;73
77700;DHT22;66867;42.658;23.320;2023-09-19T03:10:00;17.7;73
77700;DHT22;66867;42.658;23.320;2023-09-19T03:11:00;17.6;74
77700;DHT22;66867;42.658;23.320;2023-09-19T03:12:00;17.6;74
77700;DHT22;66867;42.658;23.320;2023-09-19T03:13:00;17.6;74
77700;DHT22;66867;42.658;23.320;2023-09-19T03:14:00;17.6;74
77700;DHT22;66867;42.658;23.320;2023-09-19T03:15:00;17.6;74
77700;DHT22;66867;42.658;23.320;2023-09-19T03:16:00;17.6;74
77700;DHT22;66867;42.658;23.320;2023-09-19T03:17:00;17.6;74
77700;DHT22;66867;42.658;23.320;2023-09-19T03:18:00;17.5;74
77700;DHT22;66867;42.658;23.320;2023-09-19T03:19:00;17.5;74
77700;DHT22;66867;42.658;23.320;2023-09-19T03:20:00;17.5;74
77700;DHT22;66867;42.658;23.320;2023-09-19T03:21:00;17.5;74
77700;DHT22;66867;42.658;23.320;2023-09-19T03:22:00;17.5;74
77700;DHT22;66867;42.658;23.320;2023-09-19T03:23:00;17.5;73
77700;DHT22;66867;42.658;23.320;2023-09-19T03:24:00;17.5;73
77700;DHT22;66867;42.658;23.320;2023-09-19T03:25:00;17.5;73
77700;DHT22;66867;42.658;23.320;2023-09-19T03:26:00;17.5;73
77700;DHT22;66867;42.658;23.320;2023-09-19T03:27:00;17.5;73
77700;DHT22;66867;42.658;23.320;2023-09-19T03:28:00;17.4;73
77700;DHT22;66867;42.658;23.320;2023-09-19T03:29:03;17.4;73
77700;DHT22;66867;42.658;23.320;2023-09-19T03:30:00;17.4;74
77700;DHT22;66867;42.658;23.320;2023-09-19T03:31:02;17.4;74
77700;DHT22;66867;42.658;23.320;2023-09-19T03:32:00;17.4;74
77700;DHT22;66867;42.658;23.320;2023-09-19T03:33:00;17.4;74
77700;DHT22;66867;42.658;23.320;2023-09-19T03:34:00;17.4;74
77700;DHT22;66867;42.658;23.320;2023-09-19T03:35:00;17.4;74
77700;DHT22;66867;42.658;23.320;2023-09-19T03:36:00;17.4;74
77700;DHT22;66867;42.658;23.320;2023-09-19T03:37:00;17.4;75
77700;DHT22;66867;42.658;23.320;2023-09-19T03:38:00;17.4;74
77700;DHT22;66867;42.658;23.320;2023-09-19T03:39:00;17.4;75
77700;DHT22;66867;42.658;23.320;2023-09-19T03:40:00;17.4;75
77700;DHT22;66867;42.658;23.320;2023-09-19T03:41:00;17.3;75
77700;DHT22;66867;42.658;23.320;2023-09-19T03:42:01;17.3;74
77700;DHT22;66867;42.658;23.320;2023-09-19T03:43:00;17.3;74
77700;DHT22;66867;42.658;23.320;2023-09-19T03:44:00;17.3;74
77700;DHT22;66867;42.658;23.320;2023-09-19T03:45:00;17.3;74
77700;DHT22;66867;42.658;23.320;2023-09-19T03:46:01;17.3;74
77700;DHT22;66867;42.658;23.320;2023-09-19T03:47:00;17.3;74
77700;DHT22;66867;42.658;23.320;2023-09-19T03:48:00;17.3;75
77700;DHT22;66867;42.658;23.320;2023-09-19T03:49:00;17.3;75
77700;DHT22;66867;42.658;23.320;2023-09-19T03:50:00;17.3;75
77700;DHT22;66867;42.658;23.320;2023-09-19T03:51:00;17.3;75
77700;DHT22;66867;42.658;23.320;2023-09-19T03:52:00;17.3;75
77700;DHT22;66867;42.658;23.320;2023-09-19T03:53:00;17.3;75
77700;DHT22;66867;42.658;23.320;2023-09-19T03:54:00;17.3;75
77700;DHT22;66867;42.658;23.320;2023-09-19T03:55:00;17.3;75
77700;DHT22;66867;42.658;23.320;2023-09-19T03:56:00;17.3;75
77700;DHT22;66867;42.658;23.320;2023-09-19T03:57:00;17.3;75
77700;DHT22;66867;42.658;23.320;2023-09-19T03:58:00;17.3;75
77700;DHT22;66867;42.658;23.320;2023-09-19T03:59:00;17.2;75
77700;DHT22;66867;42.658;23.320;2023-09-19T04:00:00;17.2;75
77700;DHT22;66867;42.658;23.320;2023-09-19T04:01:00;17.2;75
77700;DHT22;66867;42.658;23.320;2023-09-19T04:02:00;17.2;75
77700;DHT22;66867;42.658;23.320;2023-09-19T04:03:00;17.2;75
77700;DHT22;66867;42.658;23.320;2023-09-19T04:04:00;17.2;75
77700;DHT22;66867;42.658;23.320;2023-09-19T04:05:00;17.3;75
77700;DHT22;66867;42.658;23.320;2023-09-19T04:06:00;17.2;75
77700;DHT22;66867;42.658;23.320;2023-09-19T04:07:00;17.2;75
77700;DHT22;66867;42.658;23.320;2023-09-19T04:08:00;17.2;75
77700;DHT22;66867;42.658;23.320;2023-09-19T04:09:00;17.2;75
77700;DHT22;66867;42.658;23.320;2023-09-19T04:10:00;17.2;75
77700;DHT22;66867;42.658;23.320;2023-09-19T04:11:00;17.2;75
77700;DHT22;66867;42.658;23.320;2023-09-19T04:12:00;17.2;75
77700;DHT22;66867;42.658;23.320;2023-09-19T04:13:00;17.3;75
77700;DHT22;66867;42.658;23.320;2023-09-19T04:14:02;17.3;75
77700;DHT22;66867;42.658;23.320;2023-09-19T04:15:00;17.3;75
77700;DHT22;66867;42.658;23.320;2023-09-19T04:16:00;17.3;75
77700;DHT22;66867;42.658;23.320;2023-09-19T04:17:00;17.3;75
77700;DHT22;66867;42.658;23.320;2023-09-19T04:18:00;17.3;75
77700;DHT22;66867;42.658;23.320;2023-09-19T04:19:00;17.2;75
77700;DHT22;66867;42.658;23.320;2023-09-19T04:20:00;17.2;76
77700;DHT22;66867;42.658;23.320;2023-09-19T04:21:00;17.2;76
77700;DHT22;66867;42.658;23.320;2023-09-19T04:22:00;17.2;76
77700;DHT22;66867;42.658;23.320;2023-09-19T04:23:00;17.2;76
77700;DHT22;66867;42.658;23.320;2023-09-19T04:24:00;17.3;76
77700;DHT22;66867;42.658;23.320;2023-09-19T04:25:00;17.3;76
77700;DHT22;66867;42.658;23.320;2023-09-19T04:26:00;17.3;76
77700;DHT22;66867;42.658;23.320;2023-09-19T04:27:00;17.3;76
77700;DHT22;66867;42.658;23.320;2023-09-19T04:28:00;17.3;76
77700;DHT22;66867;42.658;23.320;2023-09-19T04:29:00;17.3;76
77700;DHT22;66867;42.658;23.320;2023-09-19T04:30:00;17.3;76
77700;DHT22;66867;42.658;23.320;2023-09-19T04:31:00;17.3;76
77700;DHT22;66867;42.658;23.320;2023-09-19T04:32:00;17.3;76
77700;DHT22;66867;42.658;23.320;2023-09-19T04:33:00;17.3;76
77700;DHT22;66867;42.658;23.320;2023-09-19T04:34:00;17.3;76
77700;DHT22;66867;42.658;23.320;2023-09-19T04:35:00;17.3;76
77700;DHT22;66867;42.658;23.320;2023-09-19T04:36:00;17.4;76
77700;DHT22;66867;42.658;23.320;2023-09-19T04:37:00;17.4;76
77700;DHT22;66867;42.658;23.320;2023-09-19T04:38:00;17.4;76
77700;DHT22;66867;42.658;23.320;2023-09-19T04:39:00;17.4;76
77700;DHT22;66867;42.658;23.320;2023-09-19T04:40:00;17.4;76
77700;DHT22;66867;42.658;23.320;2023-09-19T04:41:00;17.4;77
77700;DHT22;66867;42.658;23.320;2023-09-19T04:42:00;17.4;76
77700;DHT22;66867;42.658;23.320;2023-09-19T04:43:00;17.4;76
77700;DHT22;66867;42.658;23.320;2023-09-19T04:44:00;17.5;76
77700;DHT22;66867;42.658;23.320;2023-09-19T04:45:00;17.5;76
77700;DHT22;66867;42.658;23.320;2023-09-19T04:46:00;17.5;76
77700;DHT22;66867;42.658;23.320;2023-09-19T04:47:00;17.5;76
77700;DHT22;66867;42.658;23.320;2023-09-19T04:48:00;17.5;76
77700;DHT22;66867;42.658;23.320;2023-09-19T04:49:00;17.5;76
77700;DHT22;66867;42.658;23.320;2023-09-19T04:50:00;17.6;76
77700;DHT22;66867;42.658;23.320;2023-09-19T04:51:00;17.6;76
77700;DHT22;66867;42.658;23.320;2023-09-19T04:52:00;17.6;76
77700;DHT22;66867;42.658;23.320;2023-09-19T04:53:00;17.6;76
77700;DHT22;66867;42.658;23.320;2023-09-19T04:54:00;17.6;76
77700;DHT22;66867;42.658;23.320;2023-09-19T04:55:00;17.6;76
77700;DHT22;66867;42.658;23.320;2023-09-19T04:56:00;17.7;76
77700;DHT22;66867;42.658;23.320;2023-09-19T04:57:00;17.7;76
77700;DHT22;66867;42.658;23.320;2023-09-19T04:58:00;17.7;76
77700;DHT22;66867;42.658;23.320;2023-09-19T04:59:00;17.7;77
77700;DHT22;66867;42.658;23.320;2023-09-19T05:00:00;17.7;76
77700;DHT22;66867;42.658;23.320;2023-09-19T05:01:00;17.7;76
77700;DHT22;66867;42.658;23.320;2023-09-19T05:02:00;17.8;77
77700;DHT22;66867;42.658;23.320;2023-09-19T05:03:00;17.8;76
77700;DHT22;66867;42.658;23.320;2023-09-19T05:04:00;17.8;76
77700;DHT22;66867;42.658;23.320;2023-09-19T05:05:00;17.8;76
77700;DHT22;66867;42.658;23.320;2023-09-19T05:06:00;17.8;76
77700;DHT22;66867;42.658;23.320;2023-09-19T05:07:00;17.8;76
77700;DHT22;66867;42.658;23.320;2023-09-19T05:08:00;17.8;76
77700;DHT22;66867;42.658;23.320;2023-09-19T05:09:00;17.8;77
77700;DHT22;66867;42.658;23.320;2023-09-19T05:10:00;17.8;77
77700;DHT22;66867;42.658;23.320;2023-09-19T05:11:01;17.8;77
77700;DHT22;66867;42.658;23.320;2023-09-19T05:12:00;17.8;77
77700;DHT22;66867;42.658;23.320;2023-09-19T05:13:00;17.8;77
77700;DHT22;66867;42.658;23.320;2023-09-19T05:14:00;17.9;77
77700;DHT22;66867;42.658;23.320;2023-09-19T05:15:00;17.9;77
77700;DHT22;66867;42.658;23.320;2023-09-19T05:16:00;17.9;77
77700;DHT22;66867;42.658;23.320;2023-09-19T05:17:00;18.0;77
77700;DHT22;66867;42.658;23.320;2023-09-19T05:18:00;18.0;76
77700;DHT22;66867;42.658;23.320;2023-09-19T05:19:00;18.0;77
77700;DHT22;66867;42.658;23.320;2023-09-19T05:20:00;18.1;77
77700;DHT22;66867;42.658;23.320;2023-09-19T05:21:01;18.1;76
77700;DHT22;66867;42.658;23.320;2023-09-19T05:22:00;18.2;76
77700;DHT22;66867;42.658;23.320;2023-09-19T05:23:01;18.3;76
77700;DHT22;66867;42.658;23.320;2023-09-19T05:24:00;18.3;76
77700;DHT22;66867;42.658;23.320;2023-09-19T05:25:00;18.4;77
77700;DHT22;66867;42.658;23.320;2023-09-19T05:26:00;18.4;76
77700;DHT22;66867;42.658;23.320;2023-09-19T05:27:00;18.5;76
77700;DHT22;66867;42.658;23.320;2023-09-19T05:28:00;18.5;76
77700;DHT22;66867;42.658;23.320;2023-09-19T05:29:00;18.5;76
77700;DHT22;66867;42.658;23.320;2023-09-19T05:30:00;18.6;76
77700;DHT22;66867;42.658;23.320;2023-09-19T05:31:00;18.7;75
77700;DHT22;66867;42.658;23.320;2023-09-19T05:32:00;18.8;75
77700;DHT22;66867;42.658;23.320;2023-09-19T05:33:00;18.8;75
77700;DHT22;66867;42.658;23.320;2023-09-19T05:34:00;18.8;75
77700;DHT22;66867;42.658;23.320;2023-09-19T05:35:00;18.9;75
77700;DHT22;66867;42.658;23.320;2023-09-19T05:36:00;18.9;75
77700;DHT22;66867;42.658;23.320;2023-09-19T05:37:00;19.0;75
77700;DHT22;66867;42.658;23.320;2023-09-19T05:38:00;19.1;75
77700;DHT22;66867;42.658;23.320;2023-09-19T05:39:00;19.1;74
77700;DHT22;66867;42.658;23.320;2023-09-19T05:40:00;19.1;74
77700;DHT22;66867;42.658;23.320;2023-09-19T05:41:00;19.1;74
77700;DHT22;66867;42.658;23.320;2023-09-19T05:42:00;19.2;73
77700;DHT22;66867;42.658;23.320;2023-09-19T05:43:00;19.2;74
77700;DHT22;66867;42.658;23.320;2023-09-19T05:44:00;19.3;73
77700;DHT22;66867;42.658;23.320;2023-09-19T05:45:00;19.3;72
77700;DHT22;66867;42.658;23.320;2023-09-19T05:46:00;19.4;72
77700;DHT22;66867;42.658;23.320;2023-09-19T05:47:00;19.4;72
77700;DHT22;66867;42.658;23.320;2023-09-19T05:48:15;19.4;71
77700;DHT22;66867;42.658;23.320;2023-09-19T05:49:00;19.5;72
77700;DHT22;66867;42.658;23.320;2023-09-19T05:50:00;19.5;71
77700;DHT22;66867;42.658;23.320;2023-09-19T05:51:00;19.5;71
77700;DHT22;66867;42.658;23.320;2023-09-19T05:52:00;19.5;71
77700;DHT22;66867;42.658;23.320;2023-09-19T05:53:00;19.5;71
77700;DHT22;66867;42.658;23.320;2023-09-19T05:54:00;19.5;71
77700;DHT22;66867;42.658;23.320;2023-09-19T05:55:00;19.5;71
77700;DHT22;66867;42.658;23.320;2023-09-19T05:56:00;19.6;71
77700;DHT22;66867;42.658;23.320;2023-09-19T05:57:00;19.6;70
77700;DHT22;66867;42.658;23.320;2023-09-19T05:58:00;19.6;71
77700;DHT22;66867;42.658;23.320;2023-09-19T05:59:00;19.6;71
77700;DHT22;66867;42.658;23.320;2023-09-19T06:00:00;19.7;71
77700;DHT22;66867;42.658;23.320;2023-09-19T06:01:00;19.7;71
77700;DHT22;66867;42.658;23.320;2023-09-19T06:02:00;19.8;71
77700;DHT22;66867;42.658;23.320;2023-09-19T06:03:00;19.8;71
77700;DHT22;66867;42.658;23.320;2023-09-19T06:04:00;19.9;71
77700;DHT22;66867;42.658;23.320;2023-09-19T06:05:00;20.0;70
77700;DHT22;66867;42.658;23.320;2023-09-19T06:06:00;20.0;70
77700;DHT22;66867;42.658;23.320;2023-09-19T06:07:00;20.1;70
77700;DHT22;66867;42.658;23.320;2023-09-19T06:08:00;20.1;70
77700;DHT22;66867;42.658;23.320;2023-09-19T06:09:00;20.1;70
77700;DHT22;66867;42.658;23.320;2023-09-19T06:10:00;20.1;70
77700;DHT22;66867;42.658;23.320;2023-09-19T06:11:00;20.1;70
77700;DHT22;66867;42.658;23.320;2023-09-19T06:12:00;20.2;70
77700;DHT22;66867;42.658;23.320;2023-09-19T06:13:01;20.3;70
77700;DHT22;66867;42.658;23.320;2023-09-19T06:14:00;20.3;70
77700;DHT22;66867;42.658;23.320;2023-09-19T06:15:00;20.3;70
77700;DHT22;66867;42.658;23.320;2023-09-19T06:16:00;20.4;70
77700;DHT22;66867;42.658;23.320;2023-09-19T06:17:00;20.4;70
77700;DHT22;66867;42.658;23.320;2023-09-19T06:18:00;20.4;70
77700;DHT22;66867;42.658;23.320;2023-09-19T06:19:00;20.5;70
77700;DHT22;66867;42.658;23.320;2023-09-19T06:20:00;20.5;69
77700;DHT22;66867;42.658;23.320;2023-09-19T06:21:00;20.5;69
77700;DHT22;66867;42.658;23.320;2023-09-19T06:22:00;20.6;69
77700;DHT22;66867;42.658;23.320;2023-09-19T06:23:00;20.7;68
77700;DHT22;66867;42.658;23.320;2023-09-19T06:24:00;20.7;69
77700;DHT22;66867;42.658;23.320;2023-09-19T06:25:00;20.7;69
77700;DHT22;66867;42.658;23.320;2023-09-19T06:26:00;20.7;68
77700;DHT22;66867;42.658;23.320;2023-09-19T06:27:00;20.7;68
77700;DHT22;66867;42.658;23.320;2023-09-19T06:28:00;20.8;68
77700;DHT22;66867;42.658;23.320;2023-09-19T06:29:00;20.8;68
77700;DHT22;66867;42.658;23.320;2023-09-19T06:30:00;20.7;69
77700;DHT22;66867;42.658;23.320;2023-09-19T06:31:01;20.8;68
77700;DHT22;66867;42.658;23.320;2023-09-19T06:32:00;20.9;68
77700;DHT22;66867;42.658;23.320;2023-09-19T06:33:00;20.9;68
77700;DHT22;66867;42.658;23.320;2023-09-19T06:34:00;20.8;68
77700;DHT22;66867;42.658;23.320;2023-09-19T06:35:00;20.9;68
77700;DHT22;66867;42.658;23.320;2023-09-19T06:36:02;21.0;68
77700;DHT22;66867;42.658;23.320;2023-09-19T06:37:00;21.0;68
77700;DHT22;66867;42.658;23.320;2023-09-19T06:38:03;21.1;68
77700;DHT22;66867;42.658;23.320;2023-09-19T06:39:00;21.2;68
77700;DHT22;66867;42.658;23.320;2023-09-19T06:40:00;21.2;67
77700;DHT22;66867;42.658;23.320;2023-09-19T06:41:00;21.3;67
77700;DHT22;66867;42.658;23.320;2023-09-19T06:42:00;21.4;67
77700;DHT22;66867;42.658;23.320;2023-09-19T06:43:00;21.5;66
77700;DHT22;66867;42.658;23.320;2023-09-19T06:44:00;21.6;66
77700;DHT22;66867;42.658;23.320;2023-09-19T06:45:00;21.6;66
77700;DHT22;66867;42.658;23.320;2023-09-19T06:46:00;21.6;65
77700;DHT22;66867;42.658;23.320;2023-09-19T06:47:00;21.5;65
77700;DHT22;66867;42.658;23.320;2023-09-19T06:48:00;21.6;65
77700;DHT22;66867;42.658;23.320;2023-09-19T06:49:01;21.6;65
77700;DHT22;66867;42.658;23.320;2023-09-19T06:50:00;21.7;65
77700;DHT22;66867;42.658;23.320;2023-09-19T06:51:00;21.7;65
77700;DHT22;66867;42.658;23.320;2023-09-19T06:52:00;21.7;65
77700;DHT22;66867;42.658;23.320;2023-09-19T06:53:00;21.7;65
77700;DHT22;66867;42.658;23.320;2023-09-19T06:54:01;21.6;65